createdAt,value
2018-11-12T00:01:38.438Z,100375.70
2018-11-12T00:04:07.130Z,100383.50
2018-11-12T00:06:35.773Z,100377.91
2018-11-12T00:09:05.318Z,100381.44
2018-11-12T00:11:33.977Z,100379.80
2018-11-12T00:14:02.700Z,100376.53
2018-11-12T00:16:31.363Z,100385.69
2018-11-12T00:19:00.012Z,100387.97
2018-11-12T00:21:28.654Z,100385.07
2018-11-12T00:23:57.289Z,100389.95
2018-11-12T00:26:25.935Z,100384.45
2018-11-12T00:28:54.584Z,100390.24
2018-11-12T00:31:23.224Z,100395.92
2018-11-12T00:33:51.864Z,100388.63
2018-11-12T00:36:20.485Z,100390.24
2018-11-12T00:38:49.136Z,100392.70
2018-11-12T00:41:17.789Z,100388.04
2018-11-12T00:43:46.422Z,100385.45
2018-11-12T00:46:15.072Z,100391.17
2018-11-12T00:48:43.694Z,100389.48
2018-11-12T00:51:12.344Z,100402.07
2018-11-12T00:53:40.985Z,100396.52
2018-11-12T00:56:09.623Z,100409.11
2018-11-12T00:58:38.281Z,100405.75
2018-11-12T01:01:08.942Z,100404.59
2018-11-12T01:03:37.643Z,100397.33
2018-11-12T01:06:06.664Z,100400.07
2018-11-12T01:08:35.409Z,100407.55
2018-11-12T01:11:04.080Z,100409.84
2018-11-12T01:13:32.748Z,100406.92
2018-11-12T01:16:01.479Z,100403.17
2018-11-12T01:18:30.115Z,100402.41
2018-11-12T01:20:58.755Z,100405.51
2018-11-12T01:23:27.393Z,100401.70
2018-11-12T01:25:56.051Z,100404.34
2018-11-12T01:28:24.687Z,100396.11
2018-11-12T01:30:57.452Z,100400.94
2018-11-12T01:33:26.130Z,100407.03
2018-11-12T01:35:54.796Z,100412.22
2018-11-12T01:38:23.498Z,100408.33
2018-11-12T01:40:52.127Z,100411.83
2018-11-12T01:43:20.754Z,100415.72
2018-11-12T01:45:49.386Z,100408.47
2018-11-12T01:48:18.034Z,100406.77
2018-11-12T01:50:46.729Z,100414.19
2018-11-12T01:53:15.343Z,100406.94
2018-11-12T01:55:43.997Z,100419.44
2018-11-12T01:58:12.665Z,100421.22
2018-11-12T02:00:41.328Z,100420.37
2018-11-12T02:03:09.990Z,100427.70
2018-11-12T02:05:38.660Z,100430.30
2018-11-12T02:08:07.332Z,100422.88
2018-11-12T02:10:36.014Z,100430.22
2018-11-12T02:13:04.799Z,100433.66
2018-11-12T02:15:33.463Z,100437.61
2018-11-12T02:18:02.140Z,100442.75
2018-11-12T02:20:30.781Z,100445.34
2018-11-12T02:22:59.438Z,100442.75
2018-11-12T02:25:28.097Z,100445.71
2018-11-12T02:27:56.733Z,100444.05
2018-11-12T02:30:30.606Z,100446.19
2018-11-12T02:32:59.251Z,100446.64
2018-11-12T02:35:27.904Z,100444.95
2018-11-12T02:37:56.550Z,100441.58
2018-11-12T02:40:25.212Z,100439.44
2018-11-12T02:42:53.860Z,100438.69
2018-11-12T02:45:22.500Z,100443.06
2018-11-12T02:47:51.153Z,100442.27
2018-11-12T02:50:19.827Z,100438.06
2018-11-12T02:52:48.466Z,100438.59
2018-11-12T02:55:17.235Z,100443.91
2018-11-12T02:57:46.554Z,100446.20
2018-11-12T03:00:17.460Z,100452.90
2018-11-12T03:19:27.751Z,100453.38
2018-11-12T03:21:56.391Z,100452.52
2018-11-12T03:24:25.040Z,100453.82
2018-11-12T03:26:53.684Z,100458.16
2018-11-12T03:29:22.330Z,100462.90
2018-11-12T03:31:51.004Z,100459.01
2018-11-12T03:34:19.658Z,100461.08
2018-11-12T03:36:48.300Z,100463.14
2018-11-12T03:39:16.959Z,100466.13
2018-11-12T03:41:45.613Z,100464.84
2018-11-12T03:44:14.262Z,100465.23
2018-11-12T03:46:42.912Z,100469.89
2018-11-12T03:49:11.565Z,100475.08
2018-11-12T03:51:40.207Z,100474.16
2018-11-12T03:54:08.859Z,100483.72
2018-11-12T03:56:37.529Z,100480.27
2018-11-12T03:59:06.489Z,100479.42
2018-11-12T04:01:40.283Z,100474.69
2018-11-12T04:04:08.940Z,100479.03
2018-11-12T04:06:37.583Z,100479.42
2018-11-12T04:09:07.956Z,100481.25
2018-11-12T04:11:36.589Z,100485.99
2018-11-12T04:14:05.415Z,100487.29
2018-11-12T04:16:34.150Z,100487.29
2018-11-12T04:19:02.777Z,100492.92
2018-11-12T04:21:31.430Z,100489.03
2018-11-12T04:24:00.113Z,100492.00
2018-11-12T04:26:28.776Z,100494.55
2018-11-12T04:28:57.448Z,100488.42
2018-11-12T04:31:26.128Z,100491.95
2018-11-12T04:33:54.801Z,100491.55
2018-11-12T04:36:23.471Z,100495.84
2018-11-12T04:38:52.100Z,100495.84
2018-11-12T04:41:20.724Z,100491.95
2018-11-12T04:43:49.395Z,100502.33
2018-11-12T04:46:18.228Z,100500.58
2018-11-12T04:48:46.889Z,100486.31
2018-11-12T04:51:15.529Z,100501.80
2018-11-12T04:53:44.220Z,100504.80
2018-11-12T04:56:12.800Z,100505.97
2018-11-12T04:58:41.445Z,100501.14
2018-11-12T05:01:10.106Z,100502.84
2018-11-12T05:03:38.933Z,100503.69
2018-11-12T05:06:07.612Z,100508.03
2018-11-12T05:08:36.255Z,100515.81
2018-11-12T05:11:05.230Z,100514.97
2018-11-12T05:13:33.848Z,100516.34
2018-11-12T05:16:02.507Z,100524.95
2018-11-12T05:18:31.132Z,100522.03
2018-11-12T05:20:59.812Z,100516.07
2018-11-12T05:23:28.439Z,100522.16
2018-11-12T05:25:57.092Z,100517.90
2018-11-12T05:28:25.726Z,100524.38
2018-11-12T05:30:54.369Z,100529.57
2018-11-12T05:33:23.047Z,100525.73
2018-11-12T05:35:51.671Z,100531.40
2018-11-12T05:38:20.329Z,100533.47
2018-11-12T05:40:48.975Z,100527.75
2018-11-12T05:43:17.633Z,100536.70
2018-11-12T05:45:46.289Z,100532.73
2018-11-12T05:48:14.951Z,100534.11
2018-11-12T05:50:43.608Z,100538.45
2018-11-12T05:53:12.256Z,100533.34
2018-11-12T05:55:40.923Z,100528.64
2018-11-12T05:58:09.579Z,100528.28
2018-11-12T06:00:38.231Z,100531.77
2018-11-12T06:03:06.967Z,100526.21
2018-11-12T06:05:35.844Z,100522.81
2018-11-12T06:08:04.632Z,100527.23
2018-11-12T06:10:34.113Z,100525.16
2018-11-12T06:13:02.731Z,100520.88
2018-11-12T06:15:31.402Z,100528.73
2018-11-12T06:18:00.043Z,100523.23
2018-11-12T06:20:29.803Z,100525.87
2018-11-12T06:22:58.502Z,100527.24
2018-11-12T06:25:31.416Z,100532.80
2018-11-12T06:28:00.080Z,100529.63
2018-11-12T06:30:30.364Z,100535.09
2018-11-12T06:32:59.000Z,100535.30
2018-11-12T06:35:27.668Z,100532.09
2018-11-12T06:37:56.643Z,100535.28
2018-11-12T06:40:26.243Z,100531.63
2018-11-12T06:42:54.931Z,100534.09
2018-11-12T06:45:24.860Z,100543.45
2018-11-12T06:47:54.276Z,100550.28
2018-11-12T06:50:25.023Z,100547.56
2018-11-12T06:52:53.731Z,100554.37
2018-11-12T06:55:22.733Z,100561.23
2018-11-12T06:57:51.632Z,100556.97
2018-11-12T07:00:22.405Z,100556.84
2018-11-12T07:19:33.112Z,100577.69
2018-11-12T07:22:01.748Z,100585.88
2018-11-12T07:24:30.389Z,100594.08
2018-11-12T07:26:59.058Z,100594.52
2018-11-12T07:29:27.779Z,100598.78
2018-11-12T07:31:56.444Z,100604.33
2018-11-12T07:34:25.121Z,100607.30
2018-11-12T07:36:53.763Z,100611.95
2018-11-12T07:39:22.452Z,100614.06
2018-11-12T07:41:51.149Z,100616.17
2018-11-12T07:44:19.800Z,100616.97
2018-11-12T07:46:48.498Z,100630.65
2018-11-12T07:49:17.439Z,100620.66
2018-11-12T07:51:46.112Z,100639.11
2018-11-12T07:54:14.792Z,100635.58
2018-11-12T07:56:43.434Z,100640.64
2018-11-12T07:59:12.112Z,100643.56
2018-11-12T08:01:40.757Z,100638.69
2018-11-12T08:04:09.417Z,100646.43
2018-11-12T08:06:38.081Z,100649.72
2018-11-12T08:09:08.923Z,100648.81
2018-11-12T08:11:37.504Z,100649.22
2018-11-12T08:14:06.619Z,100652.58
2018-11-12T08:16:35.349Z,100657.20
2018-11-12T08:19:04.195Z,100654.52
2018-11-12T08:21:32.926Z,100657.44
2018-11-12T08:24:01.654Z,100656.53
2018-11-12T08:26:30.328Z,100656.45
2018-11-12T08:28:59.177Z,100661.52
2018-11-12T08:31:27.897Z,100660.53
2018-11-12T08:33:56.532Z,100668.59
2018-11-12T08:36:25.235Z,100666.67
2018-11-12T08:38:53.900Z,100672.59
2018-11-12T08:41:22.556Z,100668.95
2018-11-12T08:43:51.226Z,100660.17
2018-11-12T09:03:01.555Z,100704.78
2018-11-12T09:05:30.985Z,100705.50
2018-11-12T09:08:01.007Z,100705.27
2018-11-12T09:10:30.892Z,100699.94
2018-11-12T09:12:59.567Z,100704.46
2018-11-12T09:15:28.298Z,100703.42
2018-11-12T09:17:57.007Z,100713.23
2018-11-12T09:20:26.829Z,100708.70
2018-11-12T09:22:55.786Z,100708.88
2018-11-12T09:25:25.500Z,100709.98
2018-11-12T09:27:54.194Z,100707.20
2018-11-12T09:30:27.870Z,100701.41
2018-11-12T09:32:56.566Z,100702.11
2018-11-12T09:35:26.531Z,100701.42
2018-11-12T09:37:56.196Z,100706.48
2018-11-12T09:40:33.172Z,100705.19
2018-11-12T09:43:01.955Z,100708.13
2018-11-12T09:45:30.565Z,100710.19
2018-11-12T09:47:59.305Z,100707.05
2018-11-12T09:50:28.474Z,100706.09
2018-11-12T09:52:58.091Z,100710.21
2018-11-12T09:55:27.739Z,100709.16
2018-11-12T09:57:57.913Z,100707.84
2018-11-12T10:00:26.779Z,100706.55
2018-11-12T10:02:56.208Z,100707.55
2018-11-12T10:05:25.875Z,100708.91
2018-11-12T10:07:55.909Z,100709.46
2018-11-12T10:10:34.372Z,100710.47
2018-11-12T10:13:03.602Z,100710.98
2018-11-12T10:15:33.675Z,100711.42
2018-11-12T10:18:02.362Z,100710.76
2018-11-12T10:20:27.920Z,100712.57
2018-11-12T10:22:56.584Z,100709.71
2018-11-12T10:25:25.258Z,100717.32
2018-11-12T10:27:53.921Z,100722.67
2018-11-12T10:30:22.568Z,100720.27
2018-11-12T10:32:51.265Z,100727.39
2018-11-12T10:35:19.983Z,100731.94
2018-11-12T10:37:48.687Z,100729.38
2018-11-12T10:40:18.689Z,100723.84
2018-11-12T10:42:47.450Z,100731.80
2018-11-12T10:45:16.289Z,100724.63
2018-11-12T10:47:45.725Z,100735.30
2018-11-12T10:50:14.461Z,100727.95
2018-11-12T10:52:43.152Z,100736.25
2018-11-12T10:55:13.728Z,100733.55
2018-11-12T10:57:42.993Z,100734.45
2018-11-12T11:00:20.339Z,100731.55
2018-11-12T11:02:54.249Z,100727.89
2018-11-12T11:05:23.120Z,100739.11
2018-11-12T11:07:52.739Z,100727.86
2018-11-12T11:10:22.610Z,100735.73
2018-11-12T11:12:51.324Z,100732.23
2018-11-12T11:15:20.040Z,100724.86
2018-11-12T11:17:49.011Z,100725.28
2018-11-12T11:20:17.708Z,100733.63
2018-11-12T11:22:46.383Z,100740.09
2018-11-12T11:25:15.080Z,100742.95
2018-11-12T11:27:43.739Z,100730.86
2018-11-12T11:30:13.940Z,100741.53
2018-11-12T11:32:42.712Z,100755.61
2018-11-12T11:35:12.415Z,100750.27
2018-11-12T11:37:41.112Z,100747.59
2018-11-12T11:40:14.221Z,100752.04
2018-11-12T11:42:43.008Z,100747.15
2018-11-12T11:45:12.746Z,100744.24
2018-11-12T11:47:41.937Z,100739.74
2018-11-12T11:50:12.222Z,100743.72
2018-11-12T11:52:40.824Z,100744.67
2018-11-12T11:55:12.573Z,100742.64
2018-11-12T11:57:41.686Z,100738.13
2018-11-12T12:00:13.230Z,100744.01
2018-11-12T12:02:42.389Z,100735.59
2018-11-12T12:05:12.316Z,100731.34
2018-11-12T12:07:41.063Z,100732.20
2018-11-12T12:10:10.521Z,100735.33
2018-11-12T12:12:39.191Z,100725.17
2018-11-12T12:15:09.505Z,100718.94
2018-11-12T12:17:38.310Z,100722.29
2018-11-12T12:20:13.496Z,100717.84
2018-11-12T12:22:42.149Z,100717.84
2018-11-12T12:25:12.498Z,100717.74
2018-11-12T12:27:41.461Z,100722.63
2018-11-12T12:30:13.460Z,100713.02
2018-11-12T12:32:42.820Z,100719.91
2018-11-12T12:35:12.233Z,100722.08
2018-11-12T12:37:41.374Z,100721.17
2018-11-12T12:40:11.747Z,100717.12
2018-11-12T12:42:40.448Z,100719.91
2018-11-12T12:45:10.402Z,100707.47
2018-11-12T12:47:39.132Z,100707.86
2018-11-12T12:50:09.371Z,100708.21
2018-11-12T12:52:38.166Z,100705.98
2018-11-12T12:55:07.496Z,100710.12
2018-11-12T12:57:36.205Z,100708.61
2018-11-12T13:00:06.618Z,100716.27
2018-11-12T13:02:35.312Z,100707.90
2018-11-12T13:05:04.264Z,100712.31
2018-11-12T13:07:33.254Z,100715.70
2018-11-12T13:10:01.853Z,100721.21
2018-11-12T13:12:30.516Z,100721.34
2018-11-12T13:14:59.379Z,100726.01
2018-11-12T13:17:27.900Z,100722.93
2018-11-12T13:19:56.565Z,100726.47
2018-11-12T13:22:25.784Z,100731.22
2018-11-12T13:24:54.432Z,100713.33
2018-11-12T13:27:23.080Z,100720.61
2018-11-12T13:29:51.853Z,100719.25
2018-11-12T13:32:20.464Z,100720.39
2018-11-12T13:34:49.182Z,100722.92
2018-11-12T13:39:46.359Z,100721.42
2018-11-12T13:42:15.052Z,100725.07
2018-11-12T13:44:43.709Z,100729.02
2018-11-12T13:47:12.368Z,100724.25
2018-11-12T13:49:40.997Z,100743.67
2018-11-12T13:52:09.640Z,100733.95
2018-11-12T13:54:38.329Z,100729.00
2018-11-12T13:57:07.016Z,100734.51
2018-11-12T13:59:35.679Z,100736.19
2018-11-12T14:02:04.370Z,100734.75
2018-11-12T14:04:33.042Z,100735.24
2018-11-12T14:07:01.716Z,100739.00
2018-11-12T14:09:30.351Z,100744.31
2018-11-12T14:11:59.047Z,100748.83
2018-11-12T14:14:27.749Z,100744.81
2018-11-12T14:16:56.406Z,100747.61
2018-11-12T14:19:25.080Z,100747.80
2018-11-12T14:21:53.788Z,100752.29
2018-11-12T14:24:22.438Z,100749.10
2018-11-12T14:26:51.092Z,100749.66
2018-11-12T14:29:19.783Z,100765.08
2018-11-12T14:31:48.476Z,100764.72
2018-11-12T14:34:17.125Z,100762.17
2018-11-12T14:36:45.792Z,100761.05
2018-11-12T14:39:14.428Z,100764.80
2018-11-12T14:41:43.109Z,100772.19
2018-11-12T14:44:11.771Z,100755.92
2018-11-12T14:46:40.453Z,100767.06
2018-11-12T14:49:09.120Z,100769.49
2018-11-12T14:51:37.812Z,100765.29
2018-11-12T14:54:06.527Z,100763.78
2018-11-12T14:56:35.232Z,100780.87
2018-11-12T14:59:03.916Z,100774.15
2018-11-12T15:01:32.584Z,100781.05
2018-11-12T15:04:01.280Z,100782.92
2018-11-12T15:06:29.947Z,100775.36
2018-11-12T15:08:58.642Z,100771.83
2018-11-12T15:11:27.333Z,100787.81
2018-11-12T15:13:55.996Z,100777.17
2018-11-12T15:16:24.655Z,100788.09
2018-11-12T15:18:53.321Z,100786.22
2018-11-12T15:21:21.965Z,100793.11
2018-11-12T15:23:50.688Z,100785.16
2018-11-12T15:26:19.367Z,100788.09
2018-11-12T15:28:48.059Z,100787.34
2018-11-12T15:31:16.735Z,100790.49
2018-11-12T15:33:45.384Z,100792.36
2018-11-12T15:36:14.090Z,100795.26
2018-11-12T15:38:42.783Z,100799.42
2018-11-12T15:41:11.490Z,100798.33
2018-11-12T15:43:40.152Z,100800.34
2018-11-12T15:46:08.836Z,100806.30
2018-11-12T15:48:37.579Z,100800.50
2018-11-12T15:51:06.652Z,100809.92
2018-11-12T15:53:35.243Z,100813.62
2018-11-12T15:56:03.965Z,100820.49
2018-11-12T15:58:32.668Z,100818.61
2018-11-12T16:01:01.380Z,100814.50
2018-11-12T16:03:30.109Z,100817.73
2018-11-12T16:05:58.913Z,100823.23
2018-11-12T16:08:27.486Z,100832.61
2018-11-12T16:10:56.224Z,100831.95
2018-11-12T16:13:24.917Z,100839.50
2018-11-12T16:15:53.611Z,100827.61
2018-11-12T16:18:22.282Z,100838.59
2018-11-12T16:20:50.992Z,100839.23
2018-11-12T16:23:19.689Z,100839.40
2018-11-12T16:25:48.417Z,100832.19
2018-11-12T16:28:17.128Z,100832.50
2018-11-12T16:30:45.788Z,100837.59
2018-11-12T16:33:14.456Z,100838.30
2018-11-12T16:35:43.115Z,100842.94
2018-11-12T16:38:11.796Z,100842.44
2018-11-12T16:40:40.447Z,100853.55
2018-11-12T16:43:09.112Z,100863.77
2018-11-12T16:45:37.771Z,100872.20
2018-11-12T16:48:06.412Z,100871.05
2018-11-12T16:50:35.044Z,100868.59
2018-11-12T16:53:05.812Z,100860.95
2018-11-12T16:55:34.459Z,100872.45
2018-11-12T16:58:03.241Z,100864.39
2018-11-12T17:00:31.916Z,100870.70
2018-11-12T17:03:00.552Z,100872.16
2018-11-12T17:05:29.215Z,100879.23
2018-11-12T17:07:57.891Z,100875.86
2018-11-12T17:10:27.273Z,100883.29
2018-11-12T17:12:55.962Z,100887.30
2018-11-12T17:15:24.616Z,100893.33
2018-11-12T17:17:53.287Z,100901.64
2018-11-12T17:20:22.514Z,100908.17
2018-11-12T17:22:51.178Z,100909.53
2018-11-12T17:25:20.090Z,100907.47
2018-11-12T17:27:51.745Z,100910.68
2018-11-12T17:30:21.416Z,100916.50
2018-11-12T17:32:50.652Z,100903.78
2018-11-12T17:35:20.476Z,100908.75
2018-11-12T17:37:49.192Z,100915.87
2018-11-12T17:40:22.153Z,100918.31
2018-11-12T17:42:51.557Z,100922.77
2018-11-12T17:45:22.312Z,100919.00
2018-11-12T17:47:51.937Z,100923.00
2018-11-12T17:50:20.580Z,100919.94
2018-11-12T17:52:49.245Z,100922.91
2018-11-12T17:55:17.883Z,100929.43
2018-11-12T17:57:46.549Z,100929.21
2018-11-12T18:00:19.652Z,100936.27
2018-11-12T18:02:48.709Z,100940.23
2018-11-12T18:05:17.427Z,100944.59
2018-11-12T18:07:46.288Z,100944.09
2018-11-12T18:10:15.545Z,100948.77
2018-11-12T18:12:44.268Z,100946.07
2018-11-12T18:15:14.197Z,100945.16
2018-11-12T18:17:43.103Z,100953.44
2018-11-12T18:20:14.538Z,100946.92
2018-11-12T18:22:43.491Z,100952.59
2018-11-12T18:25:12.600Z,100946.07
2018-11-12T18:27:41.282Z,100952.59
2018-11-12T18:30:15.399Z,100947.46
2018-11-12T18:32:44.835Z,100947.52
2018-11-12T18:35:13.725Z,100947.60
2018-11-12T18:37:42.408Z,100948.59
2018-11-12T18:40:12.918Z,100954.34
2018-11-12T18:42:41.689Z,100955.34
2018-11-12T18:45:32.975Z,100953.33
2018-11-12T18:48:02.803Z,100960.04
2018-11-12T18:50:31.914Z,100955.59
2018-11-12T18:53:00.601Z,100959.23
2018-11-12T18:55:29.312Z,100960.31
2018-11-12T18:57:58.315Z,100961.44
2018-11-12T19:00:27.467Z,100966.02
2018-11-12T19:02:56.324Z,100966.20
2018-11-12T19:05:27.225Z,100972.48
2018-11-12T19:07:57.160Z,100975.31
2018-11-12T19:10:28.257Z,100978.63
2018-11-12T19:12:56.904Z,100978.85
2018-11-12T19:15:26.870Z,100979.03
2018-11-12T19:17:59.053Z,100973.13
2018-11-12T19:20:27.727Z,100980.64
2018-11-12T19:22:56.453Z,100972.59
2018-11-12T19:25:25.225Z,100968.37
2018-11-12T19:27:53.916Z,100975.46
2018-11-12T19:30:23.928Z,100975.14
2018-11-12T19:32:52.621Z,100980.02
2018-11-12T19:35:22.623Z,100981.50
2018-11-12T19:37:51.274Z,100979.87
2018-11-12T19:40:21.155Z,100985.61
2018-11-12T19:42:50.881Z,100982.23
2018-11-12T19:45:19.552Z,100983.59
2018-11-12T19:47:49.450Z,100981.97
2018-11-12T19:50:19.259Z,100993.15
2018-11-12T19:52:49.137Z,100993.23
2018-11-12T19:55:17.937Z,101000.95
2018-11-12T19:57:47.242Z,101007.02
2018-11-12T20:00:17.735Z,101009.25
2018-11-12T20:02:47.744Z,101008.77
2018-11-12T20:05:16.457Z,101012.63
2018-11-12T20:07:45.405Z,101014.77
2018-11-12T20:10:15.754Z,101029.02
2018-11-12T20:12:44.576Z,101025.06
2018-11-12T20:15:14.436Z,101022.05
2018-11-12T20:17:44.795Z,101016.00
2018-11-12T20:20:16.607Z,101020.83
2018-11-12T20:22:45.868Z,101030.39
2018-11-12T20:25:15.540Z,101024.34
2018-11-12T20:27:44.548Z,101026.94
2018-11-12T20:30:22.676Z,101033.37
2018-11-12T20:32:51.416Z,101032.39
2018-11-12T20:35:20.097Z,101025.38
2018-11-12T20:37:48.767Z,101032.27
2018-11-12T20:40:17.721Z,101027.91
2018-11-12T20:42:47.235Z,101042.18
2018-11-12T20:45:16.843Z,101034.81
2018-11-12T20:47:46.909Z,101038.72
2018-11-12T20:50:16.287Z,101033.89
2018-11-12T20:52:45.113Z,101035.19
2018-11-12T20:55:14.731Z,101028.76
2018-11-12T20:57:43.681Z,101060.45
2018-11-12T21:00:18.452Z,101063.50
2018-11-12T21:02:48.530Z,101057.84
2018-11-12T21:05:17.467Z,101054.88
2018-11-12T21:07:46.153Z,101080.50
2018-11-12T21:10:16.192Z,101081.34
2018-11-12T21:12:45.147Z,101077.05
2018-11-12T21:15:14.772Z,101073.58
2018-11-12T21:17:43.759Z,101078.34
2018-11-12T21:20:15.181Z,101078.30
2018-11-12T21:22:43.942Z,101082.20
2018-11-12T21:25:13.936Z,101084.33
2018-11-12T21:27:42.897Z,101095.14
2018-11-12T21:30:14.304Z,101091.69
2018-11-12T21:32:43.220Z,101087.00
2018-11-12T21:35:11.974Z,101095.27
2018-11-12T21:37:40.725Z,101093.96
2018-11-12T21:40:14.125Z,101080.50
2018-11-12T21:42:42.786Z,101084.97
2018-11-12T21:45:12.999Z,101089.85
2018-11-12T21:47:42.324Z,101097.66
2018-11-12T21:50:13.035Z,101109.66
2018-11-12T21:52:41.709Z,101107.75
2018-11-12T21:55:11.147Z,101107.18
2018-11-12T21:57:40.339Z,101105.48
2018-11-12T22:00:15.328Z,101111.86
2018-11-12T22:02:44.520Z,101126.34
2018-11-12T22:05:13.265Z,101126.99
2018-11-12T22:07:41.918Z,101124.99
2018-11-12T22:10:12.432Z,101122.09
2018-11-12T22:12:41.912Z,101145.20
2018-11-12T22:15:10.819Z,101135.30
2018-11-12T22:17:39.486Z,101131.40
2018-11-12T22:20:09.600Z,101133.80
2018-11-12T22:22:38.765Z,101142.26
2018-11-12T22:25:08.785Z,101133.62
2018-11-12T22:27:37.760Z,101153.20
2018-11-12T22:30:07.248Z,101158.87
2018-11-12T22:32:35.912Z,101167.98
2018-11-12T22:35:04.679Z,101168.52
2018-11-12T22:37:33.510Z,101172.02
2018-11-12T22:40:02.137Z,101176.41
2018-11-12T22:42:30.837Z,101184.73
2018-11-12T22:44:59.577Z,101176.58
2018-11-12T22:47:28.283Z,101174.10
2018-11-12T22:49:56.947Z,101177.77
2018-11-12T22:52:25.665Z,101180.89
2018-11-12T22:54:54.308Z,101183.09
2018-11-12T22:57:22.968Z,101181.39
2018-11-12T22:59:51.680Z,101174.95
2018-11-12T23:02:20.284Z,101178.58
2018-11-12T23:04:48.932Z,101183.95
2018-11-12T23:07:17.608Z,101189.65
2018-11-12T23:09:46.327Z,101198.84
2018-11-12T23:12:15.015Z,101208.85
2018-11-12T23:14:43.646Z,101205.39
2018-11-12T23:17:12.364Z,101218.05
2018-11-12T23:19:41.109Z,101195.67
2018-11-12T23:22:09.726Z,101217.33
2018-11-12T23:24:38.408Z,101215.24
2018-11-12T23:27:07.120Z,101217.56
2018-11-12T23:29:35.777Z,101223.05
2018-11-12T23:32:04.561Z,101228.92
2018-11-12T23:34:33.253Z,101227.94
2018-11-12T23:37:01.912Z,101247.31
2018-11-12T23:39:30.581Z,101257.98
2018-11-12T23:41:59.315Z,101245.27
2018-11-12T23:44:27.977Z,101232.69
2018-11-12T23:46:57.037Z,101240.96
2018-11-12T23:49:25.340Z,101245.73
2018-11-12T23:51:54.004Z,101257.86
2018-11-12T23:54:22.664Z,101258.27
2018-11-12T23:56:51.325Z,101262.82
2018-11-12T23:59:20.028Z,101271.87
